Dades de l'estació automàtica Puig Sesolles (1.666 m)
Resum diari
17:00 TU| Temperatura mitjana | 18.9 °C | |
|---|---|---|
| Temperatura màxima | 24.1 °C | 13:46 TU |
| Temperatura mínima | 15.2 °C | 5:30 TU |
| Humitat relativa mitjana | 65% | |
| Precipitació acumulada | 0.0 mm | |
| Gruix de neu màxim | 2 cm | |
| Ratxa màxima del vent (10 m) | 36.0 km/h - 238º | 4:26 TU |
| Irradiació solar global | 25.0 MJ/m2 | |
El tram horari està expressat en Temps Universal (TU). Cal sumar una hora en horari d'hivern i dues en horari d'estiu per passar a l'hora oficial.
Puig Sesolles (1.666 m)
| Municipi | Fogars de Montclús |
|---|---|
| Comarca | Vallès Oriental |
| Altitud | 1666 m |
| Data alta | 22.09.2010 |
| Estat actual | Operativa |
| Període TU |
TM °C |
TX °C |
TN °C |
HRM % |
PPT mm |
GN cm |
VVM (10 m) km/h |
DVM (10 m) graus |
VVX (10 m) km/h |
RS W/m2 |
|---|---|---|---|---|---|---|---|---|---|---|
| 00:00 - 00:30 | 16.5 | 16.6 | 16.2 | 73 | 0.0 | 0 | 22.3 | 203 | 28.1 | 0 |
| 00:30 - 01:00 | 16.0 | 16.4 | 15.8 | 74 | 0.0 | 0 | 25.9 | 210 | 31.0 | 0 |
| 01:00 - 01:30 | 16.0 | 16.1 | 15.9 | 74 | 0.0 | 0 | 25.2 | 221 | 29.2 | 0 |
| 01:30 - 02:00 | 15.7 | 15.9 | 15.6 | 76 | 0.0 | 0 | 23.8 | 223 | 26.6 | 0 |
| 02:00 - 02:30 | 15.6 | 15.8 | 15.5 | 76 | 0.0 | 0 | 27.4 | 227 | 31.7 | 0 |
| 02:30 - 03:00 | 15.5 | 15.7 | 15.3 | 76 | 0.0 | 0 | 27.4 | 234 | 32.0 | 0 |
| 03:00 - 03:30 | 15.4 | 15.6 | 15.3 | 75 | 0.0 | 0 | 27.4 | 241 | 31.3 | 0 |
| 03:30 - 04:00 | 15.5 | 15.6 | 15.4 | 73 | 0.0 | 0 | 30.2 | 241 | 35.3 | 0 |
| 04:00 - 04:30 | 15.4 | 15.5 | 15.3 | 74 | 0.0 | 0 | 29.5 | 244 | 36.0 | 0 |
| 04:30 - 05:00 | 15.4 | 15.5 | 15.3 | 74 | 0.0 | 0 | 30.2 | 241 | 34.6 | 0 |
| 05:00 - 05:30 | 15.3 | 15.3 | 15.2 | 74 | 0.0 | 0 | 28.1 | 243 | 31.7 | 2 |
| 05:30 - 06:00 | 15.4 | 15.6 | 15.2 | 74 | 0.0 | 0 | 26.3 | 248 | 29.9 | 48 |
| 06:00 - 06:30 | 15.8 | 16.1 | 15.5 | 72 | 0.0 | 0 | 25.6 | 254 | 31.3 | 136 |
| 06:30 - 07:00 | 16.0 | 16.2 | 15.9 | 71 | 0.0 | 2 | 27.0 | 255 | 32.0 | 234 |
| 07:00 - 07:30 | 16.3 | 16.6 | 16.1 | 70 | 0.0 | 1 | 25.2 | 252 | 30.2 | 343 |
| 07:30 - 08:00 | 16.9 | 17.4 | 16.6 | 67 | 0.0 | 0 | 25.2 | 242 | 31.3 | 449 |
| 08:00 - 08:30 | 17.6 | 17.9 | 17.3 | 66 | 0.0 | 1 | 22.7 | 239 | 29.2 | 549 |
| 08:30 - 09:00 | 18.5 | 18.8 | 18.0 | 63 | 0.0 | 0 | 21.2 | 239 | 27.7 | 637 |
| 09:00 - 09:30 | 19.4 | 20.0 | 18.8 | 61 | 0.0 | 0 | 18.7 | 239 | 31.0 | 712 |
| 09:30 - 10:00 | 20.0 | 20.4 | 19.3 | 59 | 0.0 | 1 | 19.4 | 225 | 30.2 | 777 |
| 10:00 - 10:30 | 20.2 | 21.2 | 19.5 | 57 | 0.0 | 1 | 17.6 | 224 | 28.4 | 833 |
| 10:30 - 11:00 | 21.0 | 21.8 | 20.3 | 53 | 0.0 | 1 | 11.5 | 211 | 22.0 | 872 |
| 11:00 - 11:30 | 21.4 | 22.9 | 20.5 | 53 | 0.0 | 1 | 11.9 | 239 | 23.0 | 892 |
| 11:30 - 12:00 | 22.1 | 23.0 | 21.4 | 53 | 0.0 | 1 | 9.7 | 229 | 29.2 | 896 |
| 12:00 - 12:30 | 22.7 | 23.5 | 21.8 | 55 | 0.0 | 1 | 15.1 | 223 | 26.6 | 893 |
| 12:30 - 13:00 | 22.6 | 23.7 | 21.6 | 54 | 0.0 | 1 | 14.8 | 207 | 25.9 | 878 |
| 13:00 - 13:30 | 22.4 | 23.2 | 21.6 | 54 | 0.0 | 1 | 13.0 | 217 | 29.5 | 850 |
| 13:30 - 14:00 | 22.7 | 24.1 | 21.7 | 54 | 0.0 | 1 | 13.7 | 222 | 27.4 | 793 |
| 14:00 - 14:30 | 22.8 | 23.5 | 21.8 | 54 | 0.0 | 0 | 12.6 | 221 | 23.4 | 725 |
| 14:30 - 15:00 | 22.3 | 23.2 | 21.3 | 60 | 0.0 | 0 | 17.6 | 234 | 30.6 | 650 |
| 15:00 - 15:30 | 22.1 | 22.8 | 21.1 | 63 | 0.0 | 0 | 20.2 | 244 | 32.0 | 560 |
| 15:30 - 16:00 | 22.4 | 23.7 | 21.1 | 63 | 0.0 | 1 | 20.9 | 257 | 31.3 | 459 |
| 16:00 - 16:30 | 22.6 | 23.5 | 21.8 | 66 | 0.0 | 0 | 16.6 | 266 | 34.9 | 356 |
| 16:30 - 17:00 | 22.3 | 22.8 | 21.8 | 68 | 0.0 | 0 | 9.7 | 278 | 20.9 | 249 |
| 17:00 - 17:30 | 22.1 | 22.8 | 21.5 | 63 | 0.0 | 0 | 6.8 | 273 | 19.1 | 149 |
| 17:30 - 18:00 | (s/d) | (s/d) | (s/d) | (s/d) | (s/d) | (s/d) | (s/d) | (s/d) | (s/d) | (s/d) |
| 18:00 - 18:30 | (s/d) | (s/d) | (s/d) | (s/d) | (s/d) | (s/d) | (s/d) | (s/d) | (s/d) | (s/d) |
Les dades en taronja només han passat un control de qualitat automàtic. Resta pendent la seva validació definitiva.